Terminal Aerodrome Forecast
Issued by NWS

Home | Current Version | Previous Version | Text Only | Print | Product List | Glossary On
Versions: 1 2 3 4 5 6 7 8 9 10 11 12 13 14 15 16 17 18 19 20 21 22 23 24 25 26 27 28 29 30 31 32 33 34 35 36 37 38 39 40 41 42 43 44
831
FTUS45 KBOU 221750
TAFBJC
TAF
KBJC 221750Z 2218/2318 36007KT P6SM FEW070
     FM222000 35011KT P6SM SCT070 BKN100
     FM222200 03018G28KT P6SM VCTS BKN035CB OVC050
      TEMPO 2222/2302 3SM -SHRA BR OVC025
     FM230200 36013KT P6SM SCT035 BKN050
     FM230600 31012KT P6SM SCT060=

USA.gov is the U.S. government's official web portal to all federal, state and local government web resources and services.